Essie, KY

2:15 PM EDT on September 20, 2014 (GMT -0400)
Middlesboro | Change Station
CLOSE
Current Station
Airport
Location: Middlesboro,
Elevation: 1155 ft
Nearby Weather Stations

Elev 1155 ft 36.61 °N, 83.74 °W | Updated 20 minutes ago

Clear
Clear
80 °F
Feels Like 80 °F
N
8
Wind Variable Wind from SSW

Today
High -- | Low -- °F
--% Chance of Precip.
Yesterday
High -- | Low -- °F
Precip. -- in
7:19 AM 7:33 PM
Waning Crescent, 11% visible
Pressure 30.14 in
Visibility 10.0 miles
Clouds Clear
Dew Point 60 °F
Humidity 51%
Rainfall 0.00 in
Snow Depth Not available.
UV 8 out of 12
Pollen 5.30 out of 12
Air Quality Not available.
Flu Activity Not available.
METAR K1A6 201755Z AUTO 20007KT 10SM CLR 27/16 A3014 RMK AO2 T02650156 10265 20156

More Conditions Fewer Conditions

Pressure 30.14 in
Visibility 10.0 miles
Clouds Clear
Dew Point 60 °F
Humidity 51%
Rainfall 0.00 in
Snow Depth Not available.
UV 8 out of 12
Pollen 5.30 out of 12
Air Quality Not available.
Flu Activity Not available.
METAR K1A6 201755Z AUTO 20007KT 10SM CLR 27/16 A3014 RMK AO2 T02650156 10265 20156

More Conditions Fewer Conditions

10-Day Weather Forecast

Almanac

Astronomy

Sep. 20, 2014 Rise Set
Actual Time 7:19 AM EDT 7:33 PM EDT
Civil Twilight 6:53 AM EDT 7:59 PM EDT
Nautical Twilight 6:23 AM EDT 8:29 PM EDT
Astronomical Twilight 5:52 AM EDT 9:00 PM EDT
Moon 4:01 AM EDT 5:33 PM EDT
Length of Visible Light 13h 05m
Length of Day
12h 13m
Tomorrow will be 2m 21s shorter.
Waning Crescent, 11% of the Moon is Illuminated
Today
Waning Crescent
Sep 24
New
Oct 1
First Quarter
Oct 8
Full
Oct 15
Last Quarter

Today's Extremes

State Highs State Lows

Community

WunderPhotos

Upload Photos

1,754,921 photos uploaded!

WunderBlogs® & News

Nearby

Snow Depth

Station Depth Elevation
No new snow has been reported.

Earthquake Activity

City Distance Mag. Time & Date
No recent earthquake activity has been reported nearby.
Minimum magnitude displayed is 2.5.

Coastal Water Temperatures

Place Temperature
No Stations Reporting

Nearby Weather Stations